Pagina principală
METAR-TAF:

METAR-TAF

Aeroporturi :

Horn Island, Australia

Latitudine: 10-35-11S, longitudine: 142-07-24E, elevație: 13 m

Observații meteo curente

Raportul a fost făcut în urmă cu 14 de minute, la 18:30 UTC
Vânt 9 kt de la Est
Temperatură 28°C
Umiditate 79%
Presiune 1008 hPa
Vizibilitate de 10 km sau mai mult
Nori împrăștiați la o înălțime de 2100 picior

METAR: YHID 051830Z AUTO 10009KT 9999 // SCT021 28/24 Q1008 RF00.0/000.0

Ora: 04:44 (18:44 UTC)

Prognoză

Raportul a fost făcut în urmă cu 1 oră și 19 de minute, la 17:25 UTC
Prognoză valabilă de la 05 ora 18 UTC la 06 ora 18 UTC
Vânt 14 kt de la Est/Sud-est
Vizibilitate de 10 km sau mai mult
Nori împrăștiați la o înălțime de 1800 picior

TAF: YHID 051725Z 0518/0618 11014KT 9999 SCT018

Observații și prognoze meteo pentru peste 4.000 de aeroporturi (rapoarte METAR și TAF).

Stațiile disponibile sunt reprezentate pe hartă prin puncte galbene și roșii.

Țineți indicatorul mouse-ului pe punctul dorit pentru a vedea denumirea stației.

Apoi, faceți clic pentru a vedea observațiile și prognozele meteorologice.

Pentru a schimba harta: Pentru mărire, faceți clic pe butoanele verzi cu cruce neagră; pentru micșorare, pe butonul verde cu o liniuță; pentru hărți învecinate, pe săgețile verzi.


METAR-TAF: